createdAt,value
2023-03-30T00:00:18.783Z,947.23
2023-03-30T00:01:18.509Z,947.25
2023-03-30T00:02:18.544Z,947.26
2023-03-30T00:03:18.735Z,947.26
2023-03-30T00:04:18.667Z,947.19
2023-03-30T00:05:18.810Z,947.16
2023-03-30T00:06:18.479Z,947.15
2023-03-30T00:07:18.461Z,947.09
2023-03-30T00:08:18.677Z,947.18
2023-03-30T00:09:18.446Z,947.16
2023-03-30T00:10:18.421Z,947.16
2023-03-30T00:11:18.443Z,947.09
2023-03-30T00:12:18.384Z,947.04
2023-03-30T00:13:18.423Z,946.93
2023-03-30T00:14:18.422Z,946.87
2023-03-30T00:15:18.373Z,946.85
2023-03-30T00:16:18.446Z,946.79
2023-03-30T00:17:18.337Z,946.80
2023-03-30T00:18:18.327Z,946.76
2023-03-30T00:19:18.320Z,946.69
2023-03-30T00:20:18.493Z,946.74
2023-03-30T00:21:18.613Z,946.65
2023-03-30T00:22:18.305Z,946.66
2023-03-30T00:23:18.305Z,946.71
2023-03-30T00:24:18.252Z,946.74
2023-03-30T00:25:18.259Z,946.85
2023-03-30T00:26:18.285Z,946.99
2023-03-30T00:27:18.223Z,947.00
2023-03-30T00:28:18.207Z,946.96
2023-03-30T00:29:18.220Z,946.99
2023-03-30T00:30:18.235Z,946.96
2023-03-30T00:31:18.203Z,946.97
2023-03-30T00:32:18.183Z,946.91
2023-03-30T00:33:18.156Z,946.81
2023-03-30T00:34:18.162Z,946.84
2023-03-30T00:35:18.127Z,946.72
2023-03-30T00:36:18.218Z,946.70
2023-03-30T00:37:18.128Z,946.68
2023-03-30T00:38:18.093Z,946.65
2023-03-30T00:39:18.077Z,946.63
2023-03-30T00:40:18.074Z,946.61
2023-03-30T00:41:18.102Z,946.56
2023-03-30T00:42:18.122Z,946.49
2023-03-30T00:43:18.167Z,946.42
2023-03-30T00:44:18.061Z,946.45
2023-03-30T00:45:18.097Z,946.39
2023-03-30T00:46:18.075Z,946.32
2023-03-30T00:47:18.018Z,946.30
2023-03-30T00:48:18.010Z,946.29
2023-03-30T00:49:18.002Z,946.27
2023-03-30T00:50:17.979Z,946.29
2023-03-30T00:51:17.965Z,946.28
2023-03-30T00:52:17.924Z,946.25
2023-03-30T00:53:17.920Z,946.28
2023-03-30T00:54:17.905Z,946.33
2023-03-30T00:55:17.937Z,946.28
2023-03-30T00:56:19.910Z,946.25
2023-03-30T00:57:17.893Z,946.24
2023-03-30T00:58:17.859Z,946.21
2023-03-30T00:59:17.855Z,946.19
2023-03-30T01:00:17.837Z,946.20
2023-03-30T01:01:17.909Z,946.16
2023-03-30T01:02:17.918Z,946.11
2023-03-30T01:03:17.862Z,946.10
2023-03-30T01:04:17.793Z,946.06
2023-03-30T01:05:17.787Z,946.10
2023-03-30T01:06:17.982Z,946.07
2023-03-30T01:07:17.811Z,946.00
2023-03-30T01:08:17.758Z,945.98
2023-03-30T01:09:17.767Z,946.00
2023-03-30T01:10:17.728Z,945.95
2023-03-30T01:11:17.764Z,945.95
2023-03-30T01:12:17.713Z,945.95
2023-03-30T01:13:17.750Z,945.96
2023-03-30T01:14:17.682Z,945.98
2023-03-30T01:15:17.684Z,945.98
2023-03-30T01:16:17.731Z,945.91
2023-03-30T01:17:17.678Z,945.90
2023-03-30T01:18:17.669Z,945.88
2023-03-30T01:19:17.652Z,945.89
2023-03-30T01:20:17.614Z,945.84
2023-03-30T01:21:17.605Z,945.80
2023-03-30T01:22:17.610Z,945.79
2023-03-30T01:23:17.614Z,945.70
2023-03-30T01:24:17.585Z,945.68
2023-03-30T01:25:17.598Z,945.62
2023-03-30T01:26:17.556Z,945.55
2023-03-30T01:27:17.551Z,945.51
2023-03-30T01:28:17.566Z,945.50
2023-03-30T01:29:17.527Z,945.50
2023-03-30T01:30:17.515Z,945.47
2023-03-30T01:31:17.592Z,945.46
2023-03-30T01:32:17.484Z,945.40
2023-03-30T01:33:17.519Z,945.37
2023-03-30T01:34:17.468Z,945.32
2023-03-30T01:35:17.477Z,945.30
2023-03-30T01:36:17.464Z,945.47
2023-03-30T01:37:17.443Z,945.42
2023-03-30T01:38:17.440Z,945.43
2023-03-30T01:39:17.424Z,945.41
2023-03-30T01:40:17.421Z,945.45
2023-03-30T01:41:17.393Z,945.40
2023-03-30T01:42:17.386Z,945.43
2023-03-30T01:43:17.476Z,945.35
2023-03-30T01:44:17.357Z,945.39
2023-03-30T01:45:17.363Z,945.40
2023-03-30T01:46:17.396Z,945.43
2023-03-30T01:47:17.312Z,945.36
2023-03-30T01:48:17.352Z,945.38
2023-03-30T01:49:17.346Z,945.37
2023-03-30T01:50:17.306Z,945.40
2023-03-30T01:51:17.267Z,945.42
2023-03-30T01:52:17.254Z,945.41
2023-03-30T01:53:17.270Z,945.41
2023-03-30T01:54:17.258Z,945.41
2023-03-30T01:55:17.244Z,945.35
2023-03-30T01:56:17.205Z,945.34
2023-03-30T01:57:17.279Z,945.39
2023-03-30T01:58:17.182Z,945.32
2023-03-30T01:59:17.178Z,945.27
2023-03-30T02:00:17.157Z,945.24
2023-03-30T02:01:17.187Z,945.19
2023-03-30T02:02:18.366Z,945.14
2023-03-30T02:03:17.391Z,945.16
2023-03-30T02:04:17.117Z,945.10
2023-03-30T02:05:17.128Z,945.09
2023-03-30T02:06:17.099Z,945.05
2023-03-30T02:07:17.118Z,945.09
2023-03-30T02:08:17.104Z,945.05
2023-03-30T02:09:17.093Z,945.02
2023-03-30T02:10:17.092Z,945.00
2023-03-30T02:11:17.062Z,944.97
2023-03-30T02:12:17.033Z,945.01
2023-03-30T02:13:17.044Z,945.06
2023-03-30T02:14:17.034Z,945.11
2023-03-30T02:15:17.001Z,945.12
2023-03-30T02:16:17.009Z,945.13
2023-03-30T02:17:16.973Z,945.09
2023-03-30T02:18:16.961Z,945.09
2023-03-30T02:19:17.028Z,945.08
2023-03-30T02:20:16.935Z,945.04
2023-03-30T02:21:16.940Z,945.08
2023-03-30T02:22:16.912Z,945.11
2023-03-30T02:23:16.923Z,945.08
2023-03-30T02:24:16.890Z,945.10
2023-03-30T02:25:16.905Z,945.07
2023-03-30T02:26:16.881Z,945.02
2023-03-30T02:27:16.862Z,945.01
2023-03-30T02:28:16.860Z,944.88
2023-03-30T02:29:16.843Z,944.94
2023-03-30T02:30:16.841Z,944.92
2023-03-30T02:31:16.926Z,944.89
2023-03-30T02:32:16.797Z,944.88
2023-03-30T02:33:16.785Z,944.87
2023-03-30T02:34:16.779Z,944.92
2023-03-30T02:35:16.765Z,944.87
2023-03-30T02:36:16.779Z,944.87
2023-03-30T02:37:16.789Z,944.83
2023-03-30T02:38:16.751Z,944.88
2023-03-30T02:39:16.745Z,944.85
2023-03-30T02:40:16.709Z,944.87
2023-03-30T02:41:16.699Z,944.89
2023-03-30T02:42:16.742Z,944.88
2023-03-30T02:43:16.723Z,944.82
2023-03-30T02:44:16.665Z,944.78
2023-03-30T02:45:16.673Z,944.73
2023-03-30T02:46:16.691Z,944.73
2023-03-30T02:47:16.629Z,944.72
2023-03-30T02:48:16.653Z,944.77
2023-03-30T02:49:16.690Z,944.79
2023-03-30T02:50:16.595Z,944.71
2023-03-30T02:51:16.617Z,944.64
2023-03-30T02:52:16.584Z,944.64
2023-03-30T02:53:16.616Z,944.61
2023-03-30T02:54:16.552Z,944.63
2023-03-30T02:55:16.566Z,944.63
2023-03-30T02:56:16.535Z,944.61
2023-03-30T02:57:16.586Z,944.59
2023-03-30T02:58:16.508Z,944.53
2023-03-30T02:59:16.598Z,944.47
2023-03-30T03:00:16.516Z,944.49
2023-03-30T03:01:24.241Z,944.45
2023-03-30T03:02:16.584Z,944.46
2023-03-30T03:03:16.530Z,944.39
2023-03-30T03:04:24.212Z,944.41
2023-03-30T03:05:24.096Z,944.34
2023-03-30T03:06:16.463Z,944.33
2023-03-30T03:07:25.481Z,944.34
2023-03-30T03:08:16.456Z,944.39
2023-03-30T03:09:16.421Z,944.40
2023-03-30T03:10:16.422Z,944.44
2023-03-30T03:11:16.416Z,944.41
2023-03-30T03:12:16.449Z,944.38
2023-03-30T03:13:16.407Z,944.35
2023-03-30T03:14:16.337Z,944.39
2023-03-30T03:15:16.328Z,944.40
2023-03-30T03:16:16.328Z,944.36
2023-03-30T03:17:16.322Z,944.32
2023-03-30T03:18:16.351Z,944.32
2023-03-30T03:19:16.311Z,944.29
2023-03-30T03:20:16.277Z,944.26
2023-03-30T03:21:16.253Z,944.33
2023-03-30T03:22:16.248Z,944.29
2023-03-30T03:23:16.254Z,944.25
2023-03-30T03:24:16.254Z,944.28
2023-03-30T03:25:16.224Z,944.28
2023-03-30T03:26:16.225Z,944.27
2023-03-30T03:27:16.186Z,944.28
2023-03-30T03:28:16.212Z,944.24
2023-03-30T03:29:16.163Z,944.25
2023-03-30T03:30:16.174Z,944.32
2023-03-30T03:31:16.190Z,944.33
2023-03-30T03:32:16.137Z,944.27
2023-03-30T03:33:16.127Z,944.30
2023-03-30T03:34:16.125Z,944.33
2023-03-30T03:35:16.098Z,944.32
2023-03-30T03:36:16.164Z,944.36
2023-03-30T03:37:16.063Z,944.37
2023-03-30T03:38:16.062Z,944.36
2023-03-30T03:39:16.112Z,944.41
2023-03-30T03:40:16.036Z,944.35
2023-03-30T03:41:16.079Z,944.33
2023-03-30T03:42:16.028Z,944.34
2023-03-30T03:43:18.808Z,944.38
2023-03-30T03:44:16.051Z,944.36
2023-03-30T03:45:15.995Z,944.29
2023-03-30T03:46:16.026Z,944.26
2023-03-30T03:47:16.728Z,944.27
2023-03-30T03:48:15.999Z,944.29
2023-03-30T03:49:15.944Z,944.29
2023-03-30T03:50:15.925Z,944.28
2023-03-30T03:51:15.916Z,944.36
2023-03-30T03:52:15.935Z,944.34
2023-03-30T03:53:15.890Z,944.31
2023-03-30T03:54:15.915Z,944.36
2023-03-30T03:55:15.869Z,944.42
2023-03-30T03:56:15.881Z,944.47
2023-03-30T03:57:15.919Z,944.51
2023-03-30T03:58:15.828Z,944.47
2023-03-30T03:59:15.832Z,944.57
2023-03-30T04:00:16.007Z,944.59
2023-03-30T04:01:15.901Z,944.44
2023-03-30T04:02:15.846Z,944.34
2023-03-30T04:03:15.853Z,944.35
2023-03-30T04:04:15.808Z,944.31
2023-03-30T04:05:15.750Z,944.34
2023-03-30T04:06:15.800Z,944.28
2023-03-30T04:07:15.734Z,944.33
2023-03-30T04:08:15.720Z,944.34
2023-03-30T04:09:15.715Z,944.37
2023-03-30T04:10:15.694Z,944.40
2023-03-30T04:11:15.708Z,944.39
2023-03-30T04:12:15.727Z,944.37
2023-03-30T04:13:15.681Z,944.34
2023-03-30T04:14:15.684Z,944.34
2023-03-30T04:15:15.668Z,944.31
2023-03-30T04:16:15.676Z,944.32
2023-03-30T04:17:15.626Z,944.28
2023-03-30T04:18:15.784Z,944.32
2023-03-30T04:19:15.785Z,944.30
2023-03-30T04:20:15.617Z,944.31
2023-03-30T04:21:15.584Z,944.27
2023-03-30T04:22:15.566Z,944.29
2023-03-30T04:23:15.601Z,944.38
2023-03-30T04:24:15.568Z,944.47
2023-03-30T04:25:15.544Z,944.41
2023-03-30T04:26:15.540Z,944.43
2023-03-30T04:27:15.509Z,944.45
2023-03-30T04:28:15.522Z,944.47
2023-03-30T04:29:15.510Z,944.44
2023-03-30T04:30:15.491Z,944.42
2023-03-30T04:31:15.538Z,944.38
2023-03-30T04:32:15.461Z,944.42
2023-03-30T04:33:15.474Z,944.43
2023-03-30T04:34:15.436Z,944.34
2023-03-30T04:35:15.420Z,944.32
2023-03-30T04:36:15.505Z,944.34
2023-03-30T04:37:15.397Z,944.31
2023-03-30T04:38:15.384Z,944.33
2023-03-30T04:39:15.396Z,944.33
2023-03-30T04:40:15.386Z,944.31
2023-03-30T04:41:15.352Z,944.32
2023-03-30T04:42:15.358Z,944.35
2023-03-30T04:43:15.323Z,944.39
2023-03-30T04:44:15.328Z,944.40
2023-03-30T04:45:15.346Z,944.43
2023-03-30T04:46:22.986Z,944.42
2023-03-30T04:47:15.295Z,944.42
2023-03-30T04:48:15.283Z,944.43
2023-03-30T04:49:15.263Z,944.39
2023-03-30T04:50:15.267Z,944.43
2023-03-30T04:51:15.240Z,944.39
2023-03-30T04:52:15.279Z,944.41
2023-03-30T04:53:15.243Z,944.42
2023-03-30T04:54:15.213Z,944.47
2023-03-30T04:55:15.220Z,944.44
2023-03-30T04:56:15.218Z,944.42
2023-03-30T04:57:15.194Z,944.42
2023-03-30T04:58:15.165Z,944.39
2023-03-30T04:59:15.149Z,944.34
2023-03-30T05:00:15.148Z,944.33
2023-03-30T05:01:15.228Z,944.36
2023-03-30T05:02:15.181Z,944.31
2023-03-30T05:03:15.191Z,944.34
2023-03-30T05:04:15.118Z,944.34
2023-03-30T05:05:15.106Z,944.32
2023-03-30T05:06:15.108Z,944.30
2023-03-30T05:07:15.057Z,944.26
2023-03-30T05:08:15.048Z,944.26
2023-03-30T05:09:15.036Z,944.26
2023-03-30T05:10:15.056Z,944.30
2023-03-30T05:11:15.021Z,944.29
2023-03-30T05:12:15.006Z,944.26
2023-03-30T05:13:14.990Z,944.28
2023-03-30T05:14:14.988Z,944.24
2023-03-30T05:15:14.974Z,944.19
2023-03-30T05:16:15.006Z,944.22
2023-03-30T05:17:15.194Z,944.23
2023-03-30T05:18:14.986Z,944.28
2023-03-30T05:19:14.930Z,944.25
2023-03-30T05:20:15.982Z,944.25
2023-03-30T05:21:14.924Z,944.19
2023-03-30T05:22:14.895Z,944.19
2023-03-30T05:23:14.901Z,944.14
2023-03-30T05:24:14.872Z,944.19
2023-03-30T05:25:14.864Z,944.19
2023-03-30T05:26:14.877Z,944.22
2023-03-30T05:27:14.866Z,944.18
2023-03-30T05:28:14.823Z,944.08
2023-03-30T05:29:14.814Z,944.07
2023-03-30T05:30:14.810Z,944.00
2023-03-30T05:31:14.838Z,944.04
2023-03-30T05:32:14.800Z,944.04
2023-03-30T05:33:14.886Z,944.02
2023-03-30T05:34:14.760Z,944.07
2023-03-30T05:35:14.762Z,944.10
2023-03-30T05:36:14.772Z,944.10
2023-03-30T05:37:14.750Z,944.17
2023-03-30T05:38:14.726Z,944.13
2023-03-30T05:39:14.698Z,944.23
2023-03-30T05:40:14.694Z,944.30
2023-03-30T05:41:14.682Z,944.24
2023-03-30T05:42:14.715Z,944.30
2023-03-30T05:43:14.658Z,944.35
2023-03-30T05:44:14.713Z,944.37
2023-03-30T05:45:14.652Z,944.47
2023-03-30T05:46:14.659Z,944.42
2023-03-30T05:47:14.639Z,944.44
2023-03-30T05:48:14.598Z,944.50
2023-03-30T05:49:14.606Z,944.47
2023-03-30T05:50:14.620Z,944.52
2023-03-30T05:51:14.562Z,944.53
2023-03-30T05:52:14.556Z,944.55
2023-03-30T05:53:14.558Z,944.56
2023-03-30T05:54:14.541Z,944.55
2023-03-30T05:55:14.538Z,944.58
2023-03-30T05:56:14.533Z,944.60
2023-03-30T05:57:14.545Z,944.66
2023-03-30T05:58:14.542Z,944.59
2023-03-30T05:59:14.477Z,944.59
2023-03-30T06:00:14.487Z,944.65
2023-03-30T06:01:14.471Z,944.62
2023-03-30T06:02:14.461Z,944.69
2023-03-30T06:03:14.616Z,944.65
2023-03-30T06:04:14.515Z,944.69
2023-03-30T06:05:14.489Z,944.70
2023-03-30T06:06:14.397Z,944.68
2023-03-30T06:07:14.380Z,944.74
2023-03-30T06:08:14.426Z,944.76
2023-03-30T06:09:14.378Z,944.81
2023-03-30T06:10:14.398Z,944.85
2023-03-30T06:11:14.365Z,944.86
2023-03-30T06:12:14.328Z,944.87
2023-03-30T06:13:14.343Z,944.81
2023-03-30T06:14:14.656Z,944.84
2023-03-30T06:15:14.306Z,944.84
2023-03-30T06:16:14.344Z,944.84
2023-03-30T06:17:14.273Z,944.88
2023-03-30T06:18:14.312Z,944.80
2023-03-30T06:19:14.260Z,944.91
2023-03-30T06:20:14.271Z,944.92
2023-03-30T06:21:14.260Z,944.98
2023-03-30T06:22:14.209Z,944.97
2023-03-30T06:23:14.315Z,945.07
2023-03-30T06:24:14.209Z,945.00
2023-03-30T06:25:14.180Z,945.05
2023-03-30T06:26:14.169Z,945.08
2023-03-30T06:27:14.185Z,945.02
2023-03-30T06:28:14.290Z,945.06
2023-03-30T06:29:14.148Z,945.01
2023-03-30T06:30:14.126Z,945.07
2023-03-30T06:31:14.197Z,945.10
2023-03-30T06:32:14.156Z,945.11
2023-03-30T06:33:14.102Z,945.06
2023-03-30T06:34:14.098Z,945.01
2023-03-30T06:35:14.091Z,945.00
2023-03-30T06:36:14.127Z,945.00
2023-03-30T06:37:14.079Z,944.93
2023-03-30T06:38:14.035Z,944.87
2023-03-30T06:39:14.034Z,944.83
2023-03-30T06:40:14.878Z,944.72
2023-03-30T06:41:14.001Z,944.67
2023-03-30T06:42:13.990Z,944.60
2023-03-30T06:43:13.976Z,944.51
2023-03-30T06:44:13.990Z,944.40
2023-03-30T06:45:14.327Z,944.37
2023-03-30T06:46:14.022Z,944.26
2023-03-30T06:47:13.929Z,944.16
2023-03-30T06:48:13.924Z,944.18
2023-03-30T06:49:13.924Z,944.20
2023-03-30T06:50:13.892Z,944.20
2023-03-30T06:51:13.903Z,944.15
2023-03-30T06:52:13.875Z,944.07
2023-03-30T06:53:13.933Z,943.98
2023-03-30T06:54:13.848Z,943.99
2023-03-30T06:55:13.836Z,944.01
2023-03-30T06:56:13.835Z,944.04
2023-03-30T06:57:15.074Z,943.93
2023-03-30T06:58:13.832Z,943.88
2023-03-30T06:59:13.820Z,943.88
2023-03-30T07:00:13.949Z,943.91
2023-03-30T07:01:13.837Z,943.91
2023-03-30T07:02:13.765Z,943.97
2023-03-30T07:03:13.837Z,944.00
2023-03-30T07:04:13.786Z,943.91
2023-03-30T07:05:13.724Z,943.79
2023-03-30T07:06:13.719Z,943.62
2023-03-30T07:07:13.715Z,943.42
2023-03-30T07:08:13.705Z,943.42
2023-03-30T07:09:13.734Z,943.48
2023-03-30T07:10:13.666Z,943.53
2023-03-30T07:11:13.672Z,943.54
2023-03-30T07:12:13.793Z,943.52
2023-03-30T07:13:13.744Z,943.57
2023-03-30T07:14:13.650Z,943.58
2023-03-30T07:15:13.620Z,943.58
2023-03-30T07:16:13.667Z,943.57
2023-03-30T07:17:13.606Z,943.57
2023-03-30T07:18:13.750Z,943.66
2023-03-30T07:19:13.635Z,943.71
2023-03-30T07:20:13.557Z,943.65
2023-03-30T07:21:14.095Z,943.65
2023-03-30T07:22:13.566Z,943.68
2023-03-30T07:23:13.522Z,943.72
2023-03-30T07:24:13.687Z,943.73
2023-03-30T07:25:13.679Z,943.79
2023-03-30T07:26:13.491Z,943.80
2023-03-30T07:27:13.477Z,943.83
2023-03-30T07:28:13.486Z,943.70
2023-03-30T07:29:13.461Z,943.64
2023-03-30T07:30:21.376Z,943.68
2023-03-30T07:31:14.519Z,943.64
2023-03-30T07:32:13.503Z,943.66
2023-03-30T07:33:13.477Z,943.57
2023-03-30T07:34:13.425Z,943.53
2023-03-30T07:35:13.385Z,943.47
2023-03-30T07:36:13.466Z,943.53
2023-03-30T07:37:13.386Z,943.55
2023-03-30T07:38:13.373Z,943.50
2023-03-30T07:39:13.356Z,943.44
2023-03-30T07:40:13.358Z,943.41
2023-03-30T07:41:13.371Z,943.42
2023-03-30T07:42:13.351Z,943.39
2023-03-30T07:43:13.300Z,943.41
2023-03-30T07:44:13.292Z,943.40
2023-03-30T07:45:16.062Z,943.40
2023-03-30T07:46:13.322Z,943.33
2023-03-30T07:47:13.256Z,943.36
2023-03-30T07:48:13.285Z,943.30
2023-03-30T07:49:13.232Z,943.21
2023-03-30T07:50:13.245Z,943.23
2023-03-30T07:51:13.222Z,943.19
2023-03-30T07:52:13.205Z,943.21
2023-03-30T07:53:13.190Z,943.24
2023-03-30T07:54:13.180Z,943.24
2023-03-30T07:55:13.213Z,943.19
2023-03-30T07:56:13.155Z,943.21
2023-03-30T07:57:13.666Z,943.16
2023-03-30T07:58:13.222Z,943.09
2023-03-30T07:59:13.180Z,943.15
2023-03-30T08:00:13.108Z,943.08
2023-03-30T08:01:13.125Z,943.01
2023-03-30T08:02:13.116Z,943.02
2023-03-30T08:03:13.359Z,943.07
2023-03-30T08:04:13.239Z,943.10
2023-03-30T08:05:13.259Z,943.06
2023-03-30T08:06:13.096Z,943.05
2023-03-30T08:07:13.114Z,943.10
2023-03-30T08:08:13.048Z,943.07
2023-03-30T08:09:13.057Z,943.09
2023-03-30T08:10:13.042Z,943.08
2023-03-30T08:11:13.104Z,943.10
2023-03-30T08:12:13.005Z,943.08
2023-03-30T08:13:13.011Z,943.11
2023-03-30T08:14:13.234Z,943.10
2023-03-30T08:15:12.972Z,943.09
2023-03-30T08:16:13.089Z,943.07
2023-03-30T08:17:12.998Z,943.11
2023-03-30T08:18:13.199Z,943.07
2023-03-30T08:19:12.919Z,943.14
2023-03-30T08:20:12.973Z,943.18
2023-03-30T08:21:12.996Z,943.20
2023-03-30T08:22:13.021Z,943.23
2023-03-30T08:23:12.895Z,943.19
2023-03-30T08:24:12.895Z,943.23
2023-03-30T08:25:12.881Z,943.20
2023-03-30T08:26:12.975Z,943.30
2023-03-30T08:27:12.901Z,943.26
2023-03-30T08:28:12.799Z,943.25
2023-03-30T08:29:12.839Z,943.20
2023-03-30T08:30:12.787Z,943.24
2023-03-30T08:31:12.828Z,943.19
2023-03-30T08:32:12.760Z,943.18
2023-03-30T08:33:13.336Z,943.17
2023-03-30T08:34:13.619Z,943.14
2023-03-30T08:35:12.740Z,943.18
2023-03-30T08:36:12.760Z,943.22
2023-03-30T08:37:12.722Z,943.19
2023-03-30T08:38:12.698Z,943.22
2023-03-30T08:39:12.696Z,943.13
2023-03-30T08:40:12.656Z,943.18
2023-03-30T08:41:12.727Z,943.25
2023-03-30T08:42:12.704Z,943.27
2023-03-30T08:43:12.652Z,943.32
2023-03-30T08:44:12.621Z,943.44
2023-03-30T08:45:12.646Z,943.45
2023-03-30T08:46:12.679Z,943.50
2023-03-30T08:47:12.582Z,943.50
2023-03-30T08:48:12.649Z,943.47
2023-03-30T08:49:12.575Z,943.65
2023-03-30T08:50:12.546Z,943.67
2023-03-30T08:51:12.549Z,943.76
2023-03-30T08:52:12.583Z,943.82
2023-03-30T08:53:12.579Z,943.89
2023-03-30T08:54:12.503Z,943.98
2023-03-30T08:55:12.499Z,944.02
2023-03-30T08:56:12.478Z,944.06
2023-03-30T08:57:12.617Z,943.97
2023-03-30T08:58:12.507Z,943.97
2023-03-30T08:59:12.455Z,944.10
2023-03-30T09:00:12.446Z,944.17
2023-03-30T09:01:12.599Z,944.29
2023-03-30T09:02:12.515Z,944.21
2023-03-30T09:03:12.469Z,944.26
2023-03-30T09:04:12.459Z,944.26
2023-03-30T09:05:12.459Z,944.41
2023-03-30T09:06:12.367Z,944.34
2023-03-30T09:07:12.363Z,944.35
2023-03-30T09:08:12.349Z,944.47
2023-03-30T09:09:12.362Z,944.45
2023-03-30T09:10:12.333Z,944.36
2023-03-30T09:11:12.321Z,944.45
2023-03-30T09:12:12.394Z,944.48
2023-03-30T09:13:12.300Z,944.51
2023-03-30T09:14:12.303Z,944.59
2023-03-30T09:15:12.289Z,944.65
2023-03-30T09:16:12.325Z,944.69
2023-03-30T09:17:12.293Z,944.70
2023-03-30T09:18:12.299Z,944.68
2023-03-30T09:19:12.248Z,944.70
2023-03-30T09:20:12.207Z,944.70
2023-03-30T09:21:12.208Z,944.69
2023-03-30T09:22:12.338Z,944.72
2023-03-30T09:23:12.213Z,944.67
2023-03-30T09:24:12.162Z,944.70
2023-03-30T09:25:12.173Z,944.75
2023-03-30T09:26:12.164Z,944.70
2023-03-30T09:27:12.167Z,944.69
2023-03-30T09:28:12.144Z,944.78
2023-03-30T09:29:12.113Z,944.76
2023-03-30T09:30:12.128Z,944.83
2023-03-30T09:31:12.093Z,944.78
2023-03-30T09:32:12.199Z,944.79
2023-03-30T09:33:12.164Z,945.00
2023-03-30T09:34:14.050Z,944.85
2023-03-30T09:35:12.050Z,944.93
2023-03-30T09:36:12.076Z,944.90
2023-03-30T09:37:12.025Z,944.90
2023-03-30T09:38:12.025Z,944.91
2023-03-30T09:39:11.995Z,944.94
2023-03-30T09:40:12.885Z,944.94
2023-03-30T09:41:11.991Z,945.03
2023-03-30T09:42:11.956Z,945.03
2023-03-30T09:43:12.029Z,945.02
2023-03-30T09:44:11.941Z,945.10
2023-03-30T09:45:11.979Z,945.06
2023-03-30T09:46:11.945Z,945.06
2023-03-30T09:47:11.926Z,944.96
2023-03-30T09:48:11.917Z,945.00
2023-03-30T09:49:11.900Z,945.00
2023-03-30T09:50:11.891Z,945.05
2023-03-30T09:51:11.994Z,945.13
2023-03-30T09:52:11.872Z,945.08
2023-03-30T09:53:11.857Z,945.11
2023-03-30T09:54:11.831Z,945.06
2023-03-30T09:55:11.815Z,945.02
2023-03-30T09:56:11.835Z,945.04
2023-03-30T09:57:11.879Z,945.00
2023-03-30T09:58:11.815Z,945.00
2023-03-30T09:59:11.795Z,944.96
2023-03-30T10:00:11.764Z,944.96
2023-03-30T10:01:11.833Z,944.90
2023-03-30T10:02:11.791Z,944.79
2023-03-30T10:03:11.888Z,944.82
2023-03-30T10:04:11.854Z,944.77
2023-03-30T10:05:11.739Z,944.73
2023-03-30T10:06:11.703Z,944.71
2023-03-30T10:07:18.602Z,944.63
2023-03-30T10:08:12.704Z,944.55
2023-03-30T10:09:11.677Z,944.41
2023-03-30T10:10:11.643Z,944.36
2023-03-30T10:11:13.223Z,944.46
2023-03-30T10:12:11.647Z,944.41
2023-03-30T10:13:11.620Z,944.40
2023-03-30T10:14:11.613Z,944.38
2023-03-30T10:15:11.607Z,944.41
2023-03-30T10:16:11.705Z,944.39
2023-03-30T10:17:11.592Z,944.39
2023-03-30T10:18:11.657Z,944.36
2023-03-30T10:19:11.563Z,944.43
2023-03-30T10:20:14.273Z,944.43
2023-03-30T10:21:11.587Z,944.47
2023-03-30T10:22:11.583Z,944.51
2023-03-30T10:23:11.571Z,944.45
2023-03-30T10:24:11.507Z,944.48
2023-03-30T10:25:11.474Z,944.38
2023-03-30T10:26:11.488Z,944.33
2023-03-30T10:27:11.468Z,944.28
2023-03-30T10:28:11.436Z,944.28
2023-03-30T10:29:11.440Z,944.33
2023-03-30T10:30:11.431Z,944.30
2023-03-30T10:31:11.470Z,944.29
2023-03-30T10:32:11.397Z,944.28
2023-03-30T10:33:11.400Z,944.34
2023-03-30T10:34:11.380Z,944.34
2023-03-30T10:35:11.379Z,944.32
2023-03-30T10:36:11.403Z,944.36
2023-03-30T10:37:11.368Z,944.32
2023-03-30T10:38:11.345Z,944.33
2023-03-30T10:39:11.313Z,944.27
2023-03-30T10:40:11.364Z,944.18
2023-03-30T10:41:11.316Z,944.05
2023-03-30T10:42:11.295Z,944.00
2023-03-30T10:43:11.273Z,943.87
2023-03-30T10:44:11.256Z,943.76
2023-03-30T10:45:11.268Z,943.64
2023-03-30T10:46:19.264Z,943.55
2023-03-30T10:47:19.239Z,943.49
2023-03-30T10:48:11.348Z,943.39
2023-03-30T10:49:11.204Z,943.36
2023-03-30T10:50:11.229Z,943.23
2023-03-30T10:51:11.184Z,943.24
2023-03-30T10:52:11.204Z,943.17
2023-03-30T10:53:11.182Z,943.17
2023-03-30T10:54:11.215Z,943.25
2023-03-30T10:55:11.135Z,943.27
2023-03-30T10:56:11.209Z,943.31
2023-03-30T10:57:11.174Z,943.34
2023-03-30T10:58:11.140Z,943.34
2023-03-30T10:59:11.094Z,943.44
2023-03-30T11:00:11.079Z,943.75
2023-03-30T11:01:11.180Z,943.69
2023-03-30T11:02:11.083Z,943.71
2023-03-30T11:03:11.242Z,943.60
2023-03-30T11:04:22.598Z,943.53
2023-03-30T11:05:12.022Z,943.50
2023-03-30T11:06:11.616Z,943.48
2023-03-30T11:07:11.033Z,943.59
2023-03-30T11:08:11.004Z,943.57
2023-03-30T11:09:11.021Z,943.61
2023-03-30T11:10:11.002Z,943.59
2023-03-30T11:11:10.961Z,943.53
2023-03-30T11:12:10.943Z,943.59
2023-03-30T11:13:11.050Z,943.62
2023-03-30T11:14:10.921Z,943.55
2023-03-30T11:15:10.934Z,943.56
2023-03-30T11:16:11.008Z,943.52
2023-03-30T11:17:10.913Z,943.47
2023-03-30T11:18:10.992Z,943.53
2023-03-30T11:19:10.909Z,943.51
2023-03-30T11:20:10.893Z,943.53
2023-03-30T11:21:10.877Z,943.57
2023-03-30T11:22:10.861Z,943.60
2023-03-30T11:23:10.859Z,943.60
2023-03-30T11:24:10.846Z,943.59
2023-03-30T11:25:10.834Z,943.61
2023-03-30T11:26:10.887Z,943.66
2023-03-30T11:27:10.773Z,943.69
2023-03-30T11:28:10.822Z,943.68
2023-03-30T11:29:10.770Z,943.61
2023-03-30T11:30:10.824Z,943.61
2023-03-30T11:31:10.787Z,943.60
2023-03-30T11:32:10.783Z,943.67
2023-03-30T11:33:10.772Z,943.70
2023-03-30T11:34:10.722Z,943.77
2023-03-30T11:35:10.751Z,943.76
2023-03-30T11:36:10.820Z,943.75
2023-03-30T11:37:10.782Z,943.68
2023-03-30T11:38:10.727Z,943.77
2023-03-30T11:39:18.476Z,943.73
2023-03-30T11:40:11.675Z,943.73
2023-03-30T11:41:10.664Z,943.81
2023-03-30T11:42:10.670Z,943.82
2023-03-30T11:43:10.614Z,943.67
2023-03-30T11:44:10.642Z,943.62
2023-03-30T11:45:10.591Z,943.65
2023-03-30T11:46:10.950Z,943.59
2023-03-30T11:47:10.573Z,943.56
2023-03-30T11:48:12.233Z,943.56
2023-03-30T11:49:10.550Z,943.51
2023-03-30T11:50:10.533Z,943.46
2023-03-30T11:51:10.547Z,943.54
2023-03-30T11:52:10.495Z,943.50
2023-03-30T11:53:10.784Z,943.42
2023-03-30T11:54:10.490Z,943.48
2023-03-30T11:55:10.466Z,943.33
2023-03-30T11:56:10.480Z,943.35
2023-03-30T11:57:10.502Z,943.26
2023-03-30T11:58:10.455Z,943.27
2023-03-30T11:59:10.447Z,943.18
2023-03-30T12:00:10.412Z,943.25
2023-03-30T12:01:10.433Z,943.20
2023-03-30T12:02:10.445Z,943.24
2023-03-30T12:03:10.568Z,943.23
2023-03-30T12:04:10.472Z,943.26
2023-03-30T12:05:10.546Z,943.15
2023-03-30T12:06:10.366Z,943.17
2023-03-30T12:07:10.329Z,943.18
2023-03-30T12:08:10.375Z,943.15
2023-03-30T12:09:10.327Z,943.10
2023-03-30T12:10:10.326Z,943.07
2023-03-30T12:11:10.291Z,943.01
2023-03-30T12:12:10.298Z,943.11
2023-03-30T12:13:10.398Z,942.90
2023-03-30T12:14:10.263Z,942.88
2023-03-30T12:15:10.292Z,942.97
2023-03-30T12:16:10.276Z,943.00
2023-03-30T12:17:10.217Z,942.97
2023-03-30T12:18:10.250Z,943.01
2023-03-30T12:19:10.206Z,942.93
2023-03-30T12:20:10.206Z,942.89
2023-03-30T12:21:10.202Z,942.91
2023-03-30T12:22:10.173Z,942.86
2023-03-30T12:23:10.157Z,942.91
2023-03-30T12:24:10.152Z,942.89
2023-03-30T12:25:10.137Z,942.89
2023-03-30T12:26:10.134Z,942.94
2023-03-30T12:27:11.562Z,942.94
2023-03-30T12:28:10.077Z,942.94